Flight Track Log - Related Links

Times and Time Zones

All times are in EDT time to prevent confusion due to time zone crossing. See the CAL221 flight status page for this flight to view local times or setup timezone preferences in your user account.

Time Position Orientation Groundspeed Altitude Reporting Facility
EDT Latitude Longitude Course Direction KTS MPH feet Rate Location/Type
Tue 01:42:28 AM 35.5383 139.7845 150° Southeast 147 169 400  Level FlightAware ADS-B (EGKK / LGW)
Tue 01:42:45 AM 35.5307 139.7902 148° Southeast 143 165 1,100 2,250 Climbing FlightAware ADS-B (EGKK / LGW)
Tue 01:43:00 AM 35.5204 139.7976 151° Southeast 149 171 1,600 1,800 Climbing FlightAware ADS-B (EGKK / LGW)
Tue 01:43:15 AM 35.5108 139.8042 150° Southeast 152 175 2,000 1,548 Climbing FlightAware ADS-B (EGKK / LGW)
Tue 01:43:31 AM 35.5015 139.8107 151° Southeast 156 180 2,400 1,946 Climbing FlightAware ADS-B (EGKK / LGW)
Tue 01:43:52 AM 35.4833 139.8236 149° Southeast 151 174 3,200 1,600 Climbing FlightAware ADS-B
Tue 01:44:16 AM 35.4721 139.8315 150° Southeast 163 188 3,600 769 Climbing FlightAware ADS-B (EGKK / LGW)
Tue 01:44:31 AM 35.4617 139.8388 150° Southeast 183 211 3,700 600 Climbing FlightAware ADS-B (EGKK / LGW)
Tue 01:44:46 AM 35.4497 139.8474 151° Southeast 204 235 3,900 900 Climbing FlightAware ADS-B (EGKK / LGW)
Tue 01:44:51 AM 35.4385 139.8524 166° South 217 250 4,000 828 Climbing FlightAware ADS-B
Tue 01:45:15 AM 35.4193 139.8493 205° Southwest 256 295 4,300 1,350 Climbing FlightAware ADS-B (EGKK / LGW)
Tue 01:45:31 AM 35.4045 139.8360 220° Southwest 268 308 4,900 2,667 Climbing FlightAware ADS-B (EGKK / LGW)
Tue 01:46:00 AM 35.3753 139.8067 219° Southwest 280 322 6,300 2,933 Climbing FlightAware ADS-B (EGKK / LGW)
Tue 01:46:16 AM 35.3595 139.7913 219° Southwest 280 322 7,100 3,097 Climbing FlightAware ADS-B (EGKK / LGW)
Tue 01:46:31 AM 35.3445 139.7768 218° Southwest 283 326 7,900 2,800 Climbing FlightAware ADS-B (EGKK / LGW)
Tue 01:46:46 AM 35.3288 139.7615 218° Southwest 288 331 8,500 2,600 Climbing FlightAware ADS-B (EGKK / LGW)
Tue 01:47:01 AM 35.3129 139.7458 221° Southwest 292 336 9,200 3,067 Climbing FlightAware ADS-B (EGKK / LGW)
Tue 01:47:31 AM 35.2847 139.7092 228° Southwest 292 336 10,800 2,852 Climbing FlightAware ADS-B (EGKK / LGW)
Tue 01:48:02 AM 35.2561 139.6713 227° Southwest 300 345 12,100 2,526 Climbing FlightAware ADS-B (EGKK / LGW)
Tue 01:48:47 AM 35.2128 139.6142 227° Southwest 311 358 14,000 2,400 Climbing FlightAware ADS-B (EGKK / LGW)
Tue 01:49:17 AM 35.1832 139.5751 227° Southwest 320 368 15,100 1,909 Climbing FlightAware ADS-B (EGKK / LGW)
Tue 01:49:31 AM 35.1608 139.5454 228° Southwest 341 392 15,400 818 Climbing FlightAware ADS-B
Tue 01:50:01 AM 35.1444 139.5090 256° West 359 413 15,700 1,143 Climbing FlightAware ADS-B (EGKK / LGW)
Tue 01:50:13 AM 35.1395 139.4693 264° West 367 422 16,200 1,826 Climbing FlightAware ADS-B
Tue 01:50:47 AM 35.1336 139.4148 262° West 377 434 17,100 1,899 Climbing FlightAware ADS-B (EGKK / LGW)
Tue 01:51:32 AM 35.1222 139.3149 262° West 386 444 18,700 2,000 Climbing FlightAware ADS-B (EGKK / LGW)
Tue 01:52:02 AM 35.1147 139.2495 262° West 394 453 19,600 1,760 Climbing FlightAware ADS-B (EGKK / LGW)
Tue 01:52:47 AM 35.1042 139.1567 262° West 405 466 20,900 1,846 Climbing FlightAware ADS-B (EGKK / LGW)
Tue 01:53:20 AM 35.0930 139.0585 263° West 413 475 22,000 2,031 Climbing FlightAware ADS-B (EGKK / LGW)
Tue 01:53:52 AM 35.0843 138.9837 263° West 415 478 23,100 1,775 Climbing FlightAware ADS-B
Tue 01:54:31 AM 35.0737 138.8917 263° West 422 486 24,100 1,595 Climbing FlightAware ADS-B
Tue 01:55:11 AM 35.0626 138.7972 263° West 427 491 25,200 1,575 Climbing FlightAware ADS-B
Tue 01:55:51 AM 35.0508 138.7023 261° West 432 497 26,200 1,333 Climbing FlightAware ADS-B
Tue 01:56:32 AM 35.0349 138.6047 259° West 442 509 27,000 1,259 Climbing FlightAware ADS-B
Tue 01:57:12 AM 35.0188 138.5040 259° West 447 514 27,900 1,185 Climbing FlightAware ADS-B
Tue 01:57:53 AM 35.0028 138.4022 259° West 455 524 28,600 1,154 Climbing FlightAware ADS-B
Tue 01:58:30 AM 34.9883 138.3095 259° West 458 527 29,400 1,210 Climbing FlightAware ADS-B
Tue 01:59:52 AM 34.9554 138.1022 260° West 463 533 31,000 1,230 Climbing FlightAware ADS-B
Tue 02:00:32 AM 34.9385 137.9970 260° West 461 531 31,900 1,154 Climbing FlightAware ADS-B
Tue 02:01:10 AM 34.9227 137.8984 260° West 466 536 32,500 1,175 Climbing FlightAware ADS-B
Tue 02:02:09 AM 34.8983 137.7482 260° West 460 529 33,800 891 Climbing FlightAware ADS-B
Tue 02:02:51 AM 34.8789 137.6408 255° West 475 547 34,000 145 Climbing FlightAware ADS-B
Tue 02:03:32 AM 34.8520 137.5340 252° West 479 551 34,000  Level FlightAware ADS-B
Tue 02:04:32 AM 34.7951 137.3886 239° Southwest 490 564 34,000  Level FlightAware ADS-B
Tue 02:05:32 AM 34.7142 137.2541 233° Southwest 490 564 34,000  Level FlightAware ADS-B
Tue 02:06:11 AM 34.6612 137.1685 234° Southwest 483 556 34,000  Level FlightAware ADS-B
Tue 02:07:12 AM 34.5779 137.0363 233° Southwest 484 557 34,000  Level FlightAware ADS-B
Tue 02:07:51 AM 34.5243 136.9518 233° Southwest 483 556 34,000  Level FlightAware ADS-B
Tue 02:08:52 AM 34.4397 136.8187 233° Southwest 485 558 34,000  Level FlightAware ADS-B
Tue 02:09:52 AM 34.3568 136.6888 233° Southwest 486 559 34,000  Level FlightAware ADS-B
Tue 02:10:51 AM 34.2760 136.5627 233° Southwest 484 557 34,000  Level FlightAware ADS-B
Tue 02:11:31 AM 34.2213 136.4775 233° Southwest 484 557 34,000  Level FlightAware ADS-B
Tue 02:13:19 AM 34.0692 136.2420 233° Southwest 482 555 34,000  Level FlightAware ADS-B
Tue 02:14:48 AM 33.9461 136.0524 233° Southwest 484 557 34,000 -212 Level FlightAware ADS-B
Tue 02:15:00 AM 33.9938 136.0927 239° Southwest  Level Estimated
Tue 02:17:00 AM 33.8474 135.8577 239° Southwest  Level Estimated
Tue 02:18:00 AM 33.8024 135.7693 239° Southwest  Level Estimated
Tue 02:19:00 AM 33.7574 135.6810 238° Southwest  Level Estimated
Tue 02:20:00 AM 33.7123 135.5928 238° Southwest  Level Estimated
Tue 02:21:00 AM 33.6672 135.5047 238° Southwest  Level Estimated
Tue 02:22:00 AM 33.6220 135.4167 238° Southwest  Level Estimated
Tue 02:23:00 AM 33.5767 135.3289 238° Southwest  Level Estimated
Tue 02:24:00 AM 33.5313 135.2410 238° Southwest  Level Estimated
Tue 02:25:00 AM 33.4860 135.1533 238° Southwest  Level Estimated
Tue 02:26:00 AM 33.4405 135.0657 238° Southwest  Level Estimated
Tue 02:27:00 AM 33.3950 134.9781 238° Southwest  Level Estimated
Tue 02:28:00 AM 33.3494 134.8907 238° Southwest  Level Estimated
Tue 02:29:00 AM 33.3037 134.8034 238° Southwest  Level Estimated
Tue 02:30:00 AM 33.2580 134.7161 238° Southwest  Level Estimated
Tue 02:31:00 AM 33.2122 134.6289 238° Southwest  Level Estimated
Tue 02:32:00 AM 33.1664 134.5419 238° Southwest  Level Estimated
Tue 02:33:00 AM 33.1205 134.4549 238° Southwest  Level Estimated
Tue 02:34:00 AM 33.0746 134.3680 238° Southwest  Level Estimated
Tue 02:35:00 AM 33.0286 134.2812 238° Southwest  Level Estimated
Tue 02:36:00 AM 32.9825 134.1944 238° Southwest  Level Estimated
Tue 02:37:00 AM 32.9364 134.1078 238° Southwest  Level Estimated
Tue 02:38:00 AM 32.8902 134.0213 238° Southwest  Level Estimated
Tue 02:39:00 AM 32.8439 133.9348 238° Southwest  Level Estimated
Tue 02:40:00 AM 32.7976 133.8485 237° Southwest  Level Estimated
Tue 02:41:00 AM 32.7513 133.7622 237° Southwest  Level Estimated
Tue 02:42:00 AM 32.7048 133.6761 237° Southwest  Level Estimated
Tue 02:43:00 AM 32.6583 133.5900 237° Southwest  Level Estimated
Tue 02:44:00 AM 32.6118 133.5040 237° Southwest  Level Estimated
Tue 02:45:00 AM 32.5652 133.4181 237° Southwest  Level Estimated
Tue 02:46:00 AM 32.5185 133.3323 237° Southwest  Level Estimated
Tue 02:47:00 AM 32.4718 133.2465 237° Southwest  Level Estimated
Tue 02:48:00 AM 32.4250 133.1609 237° Southwest  Level Estimated
Tue 02:49:00 AM 32.3782 133.0753 237° Southwest  Level Estimated
Tue 02:50:00 AM 32.3313 132.9899 237° Southwest  Level Estimated
Tue 02:51:00 AM 32.2843 132.9045 237° Southwest  Level Estimated
Tue 02:52:00 AM 32.2373 132.8192 237° Southwest  Level Estimated
Tue 02:53:00 AM 32.1903 132.7340 237° Southwest  Level Estimated
Tue 02:54:00 AM 32.1432 132.6489 237° Southwest  Level Estimated
Tue 02:55:00 AM 32.0960 132.5639 237° Southwest  Level Estimated
Tue 02:56:00 AM 32.0487 132.4790 237° Southwest  Level Estimated
Tue 02:57:00 AM 32.0014 132.3941 237° Southwest  Level Estimated
Tue 02:58:00 AM 31.9541 132.3094 237° Southwest  Level Estimated
Tue 02:59:00 AM 31.9067 132.2247 237° Southwest  Level Estimated
Tue 03:00:00 AM 31.8592 132.1401 237° Southwest  Level Estimated
Tue 03:01:00 AM 31.8117 132.0556 237° Southwest  Level Estimated
Tue 03:02:00 AM 31.7641 131.9712 236° Southwest  Level Estimated
Tue 03:03:00 AM 31.7165 131.8869 236° Southwest  Level Estimated
Tue 03:04:00 AM 31.6688 131.8027 236° Southwest  Level Estimated
Tue 03:05:00 AM 31.6211 131.7185 236° Southwest  Level Estimated
Tue 03:06:00 AM 31.5733 131.6345 236° Southwest  Level Estimated
Tue 03:07:00 AM 31.5254 131.5505 236° Southwest  Level Estimated
Tue 03:08:00 AM 31.4775 131.4666 236° Southwest  Level Estimated
Tue 03:09:00 AM 31.4296 131.3828 236° Southwest  Level Estimated
Tue 03:10:00 AM 31.3815 131.2991 236° Southwest  Level Estimated
Tue 03:11:00 AM 31.3335 131.2155 236° Southwest  Level Estimated
Tue 03:12:00 AM 31.2854 131.1319 236° Southwest  Level Estimated
Tue 03:13:00 AM 31.2372 131.0484 236° Southwest  Level Estimated
Tue 03:14:00 AM 31.1889 130.9651 236° Southwest  Level Estimated
Tue 03:15:00 AM 31.1407 130.8818 236° Southwest  Level Estimated
Tue 03:16:00 AM 31.0923 130.7986 236° Southwest  Level Estimated
Tue 03:17:00 AM 31.0439 130.7155 236° Southwest  Level Estimated
Tue 03:18:00 AM 30.9955 130.6324 236° Southwest  Level Estimated
Tue 03:19:00 AM 30.9470 130.5495 236° Southwest  Level Estimated
Tue 03:20:00 AM 30.8985 130.4666 236° Southwest  Level Estimated
Tue 03:21:00 AM 30.8498 130.3838 236° Southwest  Level Estimated
Tue 03:22:00 AM 30.8012 130.3011 236° Southwest  Level Estimated
Tue 03:23:00 AM 30.7525 130.2185 236° Southwest  Level Estimated
Tue 03:24:00 AM 30.7037 130.1360 236° Southwest  Level Estimated
Tue 03:25:00 AM 30.6549 130.0535 235° Southwest  Level Estimated
Tue 03:26:00 AM 30.6061 129.9711 235° Southwest  Level Estimated
Tue 03:27:00 AM 30.5571 129.8889 235° Southwest  Level Estimated
Tue 03:28:00 AM 30.5082 129.8067 235° Southwest  Level Estimated
Tue 03:29:00 AM 30.4592 129.7245 235° Southwest  Level Estimated
Tue 03:30:00 AM 30.4101 129.6425 235° Southwest  Level Estimated
Tue 03:31:00 AM 30.3610 129.5606 235° Southwest  Level Estimated
Tue 03:32:00 AM 30.3118 129.4787 235° Southwest  Level Estimated
Tue 03:33:00 AM 30.2626 129.3969 235° Southwest  Level Estimated
Tue 03:34:00 AM 30.2133 129.3152 235° Southwest  Level Estimated
Tue 03:35:00 AM 30.1640 129.2336 235° Southwest  Level Estimated
Tue 03:36:00 AM 30.1146 129.1520 235° Southwest  Level Estimated
Tue 03:37:00 AM 30.0651 129.0706 235° Southwest  Level Estimated
Tue 03:38:00 AM 30.0157 128.9892 235° Southwest  Level Estimated
Tue 03:39:00 AM 29.9662 128.9079 235° Southwest  Level Estimated
Tue 03:40:00 AM 29.9166 128.8267 235° Southwest  Level Estimated
Tue 03:41:00 AM 29.8669 128.7455 235° Southwest  Level Estimated
Tue 03:42:00 AM 29.8173 128.6645 235° Southwest  Level Estimated
Tue 03:43:00 AM 29.7675 128.5835 235° Southwest  Level Estimated
Tue 03:44:00 AM 29.7178 128.5026 235° Southwest  Level Estimated
Tue 03:45:00 AM 29.6679 128.4218 235° Southwest  Level Estimated
Tue 03:46:00 AM 29.6181 128.3411 235° Southwest  Level Estimated
Tue 03:47:00 AM 29.5682 128.2604 235° Southwest  Level Estimated
Tue 03:48:00 AM 29.5182 128.1798 235° Southwest  Level Estimated
Tue 03:49:00 AM 29.4682 128.0993 234° Southwest  Level Estimated
Tue 03:50:00 AM 29.4181 128.0189 234° Southwest  Level Estimated
Tue 03:51:00 AM 29.3680 127.9386 234° Southwest  Level Estimated
Tue 03:52:00 AM 29.3178 127.8583 234° Southwest  Level Estimated
Tue 03:53:00 AM 29.2676 127.7782 234° Southwest  Level Estimated
Tue 03:54:00 AM 29.2174 127.6981 234° Southwest  Level Estimated
Tue 03:55:00 AM 29.1670 127.6180 234° Southwest  Level Estimated
Tue 03:56:00 AM 29.1167 127.5381 234° Southwest  Level Estimated
Tue 03:57:00 AM 29.0663 127.4582 234° Southwest  Level Estimated
Tue 03:58:00 AM 29.0159 127.3784 234° Southwest  Level Estimated
Tue 03:59:00 AM 28.9653 127.2987 234° Southwest  Level Estimated
Tue 04:00:00 AM 28.9148 127.2191 234° Southwest  Level Estimated
Tue 04:01:00 AM 28.8642 127.1395 234° Southwest  Level Estimated
Tue 04:02:00 AM 28.8136 127.0601 234° Southwest  Level Estimated
Tue 04:03:00 AM 28.7629 126.9807 234° Southwest  Level Estimated
Tue 04:04:00 AM 28.7122 126.9014 234° Southwest  Level Estimated
Tue 04:05:00 AM 28.6614 126.8221 234° Southwest  Level Estimated
Tue 04:06:00 AM 28.6106 126.7429 234° Southwest  Level Estimated
Tue 04:07:00 AM 28.5597 126.6638 234° Southwest  Level Estimated
Tue 04:08:00 AM 28.5088 126.5848 234° Southwest  Level Estimated
Tue 04:09:00 AM 28.4578 126.5059 234° Southwest  Level Estimated
Tue 04:10:00 AM 28.4068 126.4270 234° Southwest  Level Estimated
Tue 04:11:00 AM 28.3558 126.3483 234° Southwest  Level Estimated
Tue 04:12:00 AM 28.3047 126.2695 234° Southwest  Level Estimated
Tue 04:13:00 AM 28.2535 126.1909 234° Southwest  Level Estimated
Tue 04:14:00 AM 28.2024 126.1124 234° Southwest  Level Estimated
Tue 04:15:00 AM 28.1511 126.0339 233° Southwest  Level Estimated
Tue 04:16:00 AM 28.0999 125.9555 233° Southwest  Level Estimated
Tue 04:17:00 AM 28.0485 125.8771 233° Southwest  Level Estimated
Tue 04:18:00 AM 27.9972 125.7989 233° Southwest  Level Estimated
Tue 04:19:00 AM 27.9458 125.7207 233° Southwest  Level Estimated
Tue 04:20:00 AM 27.8943 125.6426 233° Southwest  Level Estimated
Tue 04:21:00 AM 27.8428 125.5645 233° Southwest  Level Estimated
Tue 04:22:00 AM 27.7913 125.4866 233° Southwest  Level Estimated
Tue 04:23:00 AM 27.7397 125.4087 233° Southwest  Level Estimated
Tue 04:23:16 AM 24.9593 121.3518 281° West 274 315 6,400  Level FlightAware ADS-B (KHAO)
Tue 04:24:00 AM 27.6881 125.3309 233° Southwest  Level Estimated
Tue 04:25:00 AM 27.6364 125.2531 233° Southwest  Level Estimated
Tue 04:25:32 AM 24.9988 121.1857 295° West 219 252 5,400  Level FlightAware ADS-B (KHAO)
Tue 04:25:38 AM 25.0027 121.1800 312° West 208 239 5,400  Level FlightAware ADS-B (KHAO)
Tue 04:25:44 AM 25.0063 121.1769 324° Northwest 200 230 5,400  Level FlightAware ADS-B (KHAO)
Tue 04:25:48 AM 25.0097 121.1749 333° Northwest 193 222 5,400  Level FlightAware ADS-B (KHAO)
Tue 04:26:07 AM 25.0247 121.1757 15° North 164 189 5,400 -300 Level FlightAware ADS-B (KHAO)
Tue 04:26:48 AM 25.0462 121.1954 57° Northeast 144 166 5,100 -594 Descending FlightAware ADS-B (KHAO)
Tue 04:27:48 AM 25.0661 121.2329 60° Northeast 143 165 4,400 -553 Descending FlightAware ADS-B (KHAO)
Tue 04:28:04 AM 25.0712 121.2427 60° Northeast 139 160 4,400  Level FlightAware ADS-B (KHAO)
Tue 04:28:19 AM 25.0755 121.2524 70° East 144 166 4,400  Level FlightAware ADS-B (KHAO)
Tue 04:28:38 AM 25.0782 121.2650 83° East 139 160 4,400  Level FlightAware ADS-B (KHAO)
Tue 04:31:00 AM 25.0714 121.4898 92° East  Level Estimated
Tue 04:32:00 AM 25.0694 121.5517 92° East  Level Estimated
Tue 04:33:00 AM 25.0694 121.5517 North  Level Estimated
Tue 04:34:00 AM 25.0694 121.5517 North  Level Estimated
Tue 04:35:00 AM 25.0694 121.5517 North  Level Estimated
Tue 04:36:00 AM 25.0694 121.5517 North  Level Estimated
Tue 04:37:00 AM 25.0694 121.5517 North  Level Estimated
Tue 04:38:00 AM 25.0694 121.5517 North  Level Estimated
Tue 04:39:00 AM 25.0694 121.5517 North  Level Estimated
Tue 04:40:00 AM 25.0694 121.5517 North  Level Estimated
Tue 04:41:00 AM 25.0694 121.5517 North  Level Estimated
Tue 04:42:00 AM 25.0694 121.5517 North  Level Estimated
Tue 04:43:00 AM 25.0694 121.5517 North  Level Estimated
Tue 04:44:00 AM 25.0694 121.5517 North  Level Estimated
Tue 04:45:00 AM 25.0694 121.5517 North  Level Estimated
Tue 04:46:00 AM 25.0694 121.5517 North  Level Estimated
Tue 04:47:00 AM 25.0694 121.5517 North  Level Estimated
Tue 04:48:00 AM 25.0694 121.5517 North  Level Estimated
Tue 04:49:00 AM 25.0694 121.5517 North  Level Estimated
Tue 04:50:00 AM 25.0694 121.5517 North  Level Estimated
Tue 04:51:00 AM 25.0694 121.5517 North  Level Estimated
Tue 04:52:00 AM 25.0694 121.5517 North  Level Estimated
Tue 04:53:00 AM 25.0694 121.5517 North  Level Estimated
Tue 04:54:00 AM 25.0694 121.5517 North  Level Estimated
Tue 04:55:00 AM 25.0694 121.5517 North  Level Estimated
Tue 04:56:00 AM 25.0694 121.5517 North  Level Estimated
Tue 04:57:00 AM 25.0694 121.5517 North  Level Estimated
Tue 04:58:00 AM 25.0694 121.5517 North  Level Estimated
Tue 04:59:00 AM 25.0694 121.5517 North  Level Estimated
Tue 05:00:00 AM 25.0694 121.5517 North  Level Estimated
Tue 05:01:00 AM 25.0694 121.5517 North  Level Estimated
Tue 05:02:00 AM 25.0694 121.5517 North  Level Estimated
Tue 05:03:00 AM 25.0694 121.5517 North  Level Estimated
Tue 05:04:00 AM 25.0694 121.5517 North  Level Estimated
Tue 05:05:00 AM 25.0694 121.5517 North  Level Estimated
Tue 05:06:00 AM 25.0694 121.5517 North  Level Estimated
Tue 05:07:00 AM 25.0694 121.5517 North  Level Estimated
Tue 05:08:00 AM 25.0694 121.5517 North  Level Estimated
Tue 05:09:00 AM 25.0694 121.5517 North  Level Estimated
Tue 05:10:00 AM 25.0694 121.5517 North  Level Estimated
Tue 05:11:00 AM 25.0694 121.5517 North  Level Estimated
Tue 05:12:00 AM 25.0694 121.5517 North  Level Estimated
Tue 05:13:00 AM 25.0694 121.5517 North  Level Estimated
Tue 05:14:00 AM 25.0694 121.5517 North  Level Estimated
Tue 05:15:00 AM 25.0694 121.5517 North  Level Estimated
Tue 05:16:00 AM 25.0694 121.5517 North  Level Estimated
Tue 05:17:00 AM 25.0694 121.5517 North  Level Estimated
Tue 05:18:00 AM 25.0694 121.5517 North  Level Estimated
Tue 05:19:00 AM 25.0694 121.5517 North  Level Estimated
Tue 05:20:00 AM 25.0694 121.5517 North  Level Estimated
Tue 05:21:00 AM 25.0694 121.5517 North  Level Estimated
Tue 05:22:00 AM 25.0694 121.5517 North  Level Estimated
Tue 05:23:00 AM 25.0694 121.5517 North  Level Estimated
Tue 05:24:00 AM 25.0694 121.5517 North  Level Estimated
Tue 05:25:00 AM 25.0694 121.5517 North  Level Estimated
Tue 05:26:00 AM 25.0694 121.5517 North  Level Estimated
Tue 05:27:00 AM 25.0694 121.5517 North  Level Estimated
Tue 05:28:00 AM 25.0694 121.5517 North  Level Estimated
Tue 05:29:00 AM 25.0694 121.5517 North  Level Estimated
Tue 05:30:00 AM 25.0694 121.5517 North  Level Estimated
Tue 05:31:00 AM 25.0694 121.5517 North  Level Estimated
Tue 05:32:00 AM 25.0694 121.5517 North  Level Estimated
Tue 05:33:00 AM 25.0694 121.5517 North  Level Estimated
Tue 05:34:00 AM 25.0694 121.5517 North  Level Estimated
Tue 05:35:00 AM 25.0694 121.5517 North  Level Estimated
Tue 05:36:00 AM 25.0694 121.5517 North  Level Estimated
Tue 05:37:00 AM 25.0694 121.5517 North  Level Estimated

Login

Don't have an account? Register now (free) for customized features, flight alerts, and more!